Shawville, PA (16873)

3:27 PM EST on December 06, 2016 (GMT -0500)
Clearfield-Lawrence | | Change Station

Elev 1516 ft 41.05 °N, 78.41 °W | Updated 33 minutes ago

Rain
Rain Mist
33 °F
Feels Like 29 °F
N
5
Wind Variable Wind from ESE

Today
High -- | Low -- °F
--% Chance of Precip.
Yesterday
High -- | Low -- °F
Precip. -- in
Pressure 29.87 in
Visibility 4.0 miles
Clouds Overcast 1500 ft
Windchill 29 °F
Dew Point 32 °F
Humidity 96%
Rainfall 0.10 in
Snow Depth Not available.
7:24 AM 4:44 PM
Waxing Crescent, 45% visible
METAR KFIG 061954Z AUTO 12004KT 4SM RA BR OVC015 01/00 A2982 RMK AO2 SLP115 P0006 T00060000
Pressure 29.87 in
Visibility 4.0 miles
Clouds Overcast 1500 ft
Windchill 29 °F
Dew Point 32 °F
Humidity 96%
Rainfall 0.10 in
Snow Depth Not available.
7:24 AM 4:44 PM
Waxing Crescent, 45% visible
METAR KFIG 061954Z AUTO 12004KT 4SM RA BR OVC015 01/00 A2982 RMK AO2 SLP115 P0006 T00060000

10-Day Weather Forecast

Almanac

Astronomy

Dec. 06, 2016 Rise Set
Actual Time
Civil Twilight
Nautical Twilight
Astronomical Twilight
Moon
Length of Visible Light
Length of Day
Tomorrow will be .
, % of the Moon is Illuminated

Today's Extremes

State Highs State Lows

Community

WunderPhotos

Upload Photos

1,956,022 photos uploaded!

WunderBlog® & News

Nearby

Air Quality

  Air Quality AQ Index Pollutant
Not available.

Snow Depth

Station Depth Elevation

Earthquake Activity

City Distance Mag. Time & Date
Minimum magnitude displayed is 2.5.

Coastal Water Temperatures

Place Temperature

Stations

Nearby Weather Stations

Station Location Temp. Windchill Dew Point Humidity Wind Precip. Elev Updated Type
                   

Watches & Warnings

There are currently no watches in effect.